Time;durP1;ratioP1;P1;durP2;ratioP2;P2;SDS_P1;SDS_P2;PMS_P1;PMS_P2;Temp;Humidity;BMP_temperature;BMP_pressure;BME280_temperature;BME280_humidity;BME280_pressure;Samples;Min_cycle;Max_cycle;Signal;HPM_P1;HPM_P2
2021/06/08 00:00:49;;;;;;;;;24.50;23.00;;;;;-147.17;100.00;59696.56;5032074;28;52612;-45
2021/06/08 00:03:14;;;;;;;;;26.75;25.75;;;;;-147.17;100.00;59696.56;5031970;28;51040;-49
2021/06/08 00:05:40;;;;;;;;;24.00;23.50;;;;;-147.17;100.00;59696.56;5032281;28;51223;-46
2021/06/08 00:08:05;;;;;;;;;24.50;24.50;;;;;-147.17;100.00;59696.56;5031003;28;51118;-45
2021/06/08 00:10:31;;;;;;;;;23.00;22.00;;;;;-147.17;100.00;59696.56;5031269;28;51678;-50
2021/06/08 00:12:57;;;;;;;;;24.75;24.50;;;;;-147.17;100.00;59696.56;5032625;28;51232;-45
2021/06/08 00:15:22;;;;;;;;;24.00;23.25;;;;;-147.17;100.00;59696.56;5031873;28;51220;-44
2021/06/08 00:17:48;;;;;;;;;26.00;25.50;;;;;-147.17;100.00;59696.56;5032891;28;51267;-45
2021/06/08 00:20:14;;;;;;;;;26.00;25.25;;;;;-147.17;100.00;59696.56;5028839;28;51704;-44
2021/06/08 00:22:39;;;;;;;;;30.50;29.50;;;;;-147.17;100.00;59696.56;5031288;28;51244;-46
2021/06/08 00:25:06;;;;;;;;;27.75;27.75;;;;;-147.17;100.00;59696.56;5033006;28;50976;-45
2021/06/08 00:27:31;;;;;;;;;27.25;27.25;;;;;-147.17;100.00;59696.56;5032608;28;51306;-47
2021/06/08 00:29:56;;;;;;;;;28.50;27.00;;;;;-147.17;100.00;59696.56;5031855;28;51878;-45
2021/06/08 00:32:22;;;;;;;;;27.00;25.75;;;;;-147.17;100.00;59696.56;5033232;28;51025;-46
2021/06/08 00:34:47;;;;;;;;;27.75;27.50;;;;;-147.17;100.00;59696.56;5030373;28;51205;-46
2021/06/08 00:37:13;;;;;;;;;28.75;28.75;;;;;-147.17;100.00;59696.56;5032777;28;50966;-44
2021/06/08 00:39:38;;;;;;;;;28.00;27.00;;;;;-147.17;100.00;59696.56;5031732;28;52684;-46
2021/06/08 00:42:04;;;;;;;;;27.25;27.00;;;;;-147.17;100.00;59696.56;5033182;28;50969;-44
2021/06/08 00:44:29;;;;;;;;;27.25;26.25;;;;;-147.17;100.00;59696.56;5031986;28;51194;-46
2021/06/08 00:46:55;;;;;;;;;29.00;27.50;;;;;-147.17;100.00;59696.56;5032448;28;51413;-45
2021/06/08 00:49:20;;;;;;;;;30.25;29.00;;;;;-147.17;100.00;59696.56;5030458;28;52695;-45
2021/06/08 00:51:45;;;;;;;;;27.50;26.75;;;;;-147.17;100.00;59696.56;5028494;28;51219;-46
2021/06/08 00:54:11;;;;;;;;;28.75;27.50;;;;;-147.17;100.00;59696.56;5033692;28;51531;-45
2021/06/08 00:56:39;;;;;;;;;25.75;25.75;;;;;-147.17;100.00;59696.56;5032194;28;51014;-47
2021/06/08 00:59:05;;;;;;;;;27.00;26.00;;;;;-147.17;100.00;59696.56;5023619;28;51954;-47
2021/06/08 01:01:31;;;;;;;;;26.75;26.75;;;;;-147.17;100.00;59696.56;5032728;28;50994;-46
2021/06/08 01:03:57;;;;;;;;;27.75;26.00;;;;;-147.17;100.00;59696.56;5032400;28;50886;-49
2021/06/08 01:06:22;;;;;;;;;27.75;26.25;;;;;-147.17;100.00;59696.56;5033115;28;51282;-46
2021/06/08 01:08:47;;;;;;;;;30.50;28.25;;;;;-147.17;100.00;59696.56;5029688;28;51140;-48
2021/06/08 01:11:13;;;;;;;;;30.25;28.50;;;;;-147.17;100.00;59696.56;5031832;28;51122;-47
2021/06/08 01:13:41;;;;;;;;;29.25;28.00;;;;;-147.17;100.00;59696.56;5032001;28;50983;-45
2021/06/08 01:16:06;;;;;;;;;24.75;23.75;;;;;-147.17;100.00;59696.56;5026066;28;51294;-44
2021/06/08 01:18:32;;;;;;;;;26.50;25.50;;;;;-147.17;100.00;59696.56;5031105;28;51766;-48
2021/06/08 01:21:10;;;;;;;;;33.25;29.50;;;;;-147.17;100.00;59696.56;5035442;28;51073;-45
2021/06/08 01:23:37;;;;;;;;;29.00;28.00;;;;;-147.17;100.00;59696.56;5036278;28;50953;-46
2021/06/08 01:26:04;;;;;;;;;27.25;26.75;;;;;-147.17;100.00;59696.56;5032903;28;51118;-46
2021/06/08 01:28:31;;;;;;;;;32.00;30.50;;;;;-147.17;100.00;59696.56;5033299;28;52569;-44
2021/06/08 01:30:58;;;;;;;;;30.00;29.50;;;;;-147.17;100.00;59696.56;5028923;28;51010;-44
2021/06/08 01:33:25;;;;;;;;;29.00;28.25;;;;;-147.17;100.00;59696.56;5035765;28;50952;-45
2021/06/08 01:35:52;;;;;;;;;30.00;29.50;;;;;-147.17;100.00;59696.56;5035416;28;51232;-45
2021/06/08 01:38:19;;;;;;;;;27.75;27.50;;;;;-147.17;100.00;59696.56;5034825;28;53111;-44
2021/06/08 01:40:49;;;;;;;;;29.00;27.50;;;;;-147.17;100.00;59696.56;5035844;28;51080;-43
2021/06/08 01:43:16;;;;;;;;;31.00;30.00;;;;;-147.17;100.00;59696.56;5032006;28;51313;-44
2021/06/08 01:45:42;;;;;;;;;29.25;28.00;;;;;-147.17;100.00;59696.56;5033634;28;51468;-44
2021/06/08 01:48:08;;;;;;;;;31.00;29.75;;;;;-147.17;100.00;59696.56;5032973;28;51143;-44
2021/06/08 01:50:35;;;;;;;;;29.50;29.00;;;;;-147.17;100.00;59696.56;5035504;28;51072;-44
2021/06/08 01:53:22;;;;;;;;;27.75;27.50;;;;;-147.17;100.00;59696.56;5035794;28;51167;-45
2021/06/08 01:55:51;;;;;;;;;27.50;27.25;;;;;-147.17;100.00;59696.56;5034169;28;51132;-45
2021/06/08 01:58:32;;;;;;;;;22.25;22.25;;;;;-147.17;100.00;59696.56;5034856;28;51769;-44
2021/06/08 02:01:09;;;;;;;;;22.25;21.25;;;;;-147.17;100.00;59696.56;5033262;28;51286;-47
2021/06/08 02:03:39;;;;;;;;;26.00;24.25;;;;;-147.17;100.00;59696.56;5034931;28;51190;-47
2021/06/08 02:06:26;;;;;;;;;24.75;22.75;;;;;-147.17;100.00;59696.56;5032754;28;51205;-45
2021/06/08 02:09:22;;;;;;;;;24.75;24.50;;;;;-147.17;100.00;59696.56;5035321;28;51194;-49
2021/06/08 02:12:14;;;;;;;;;22.50;21.75;;;;;-147.17;100.00;59696.56;5034865;28;51091;-45
2021/06/08 02:15:08;;;;;;;;;21.00;21.00;;;;;-147.17;100.00;59696.56;5028822;28;51114;-44
2021/06/08 02:17:39;;;;;;;;;24.50;23.00;;;;;-147.17;100.00;59696.56;5031990;28;54213;-46
2021/06/08 02:20:09;;;;;;;;;22.25;22.00;;;;;-147.17;100.00;59696.56;5035721;28;52062;-48
2021/06/08 02:22:41;;;;;;;;;20.00;20.00;;;;;-147.17;100.00;59696.56;5034271;28;51208;-45
2021/06/08 02:25:10;;;;;;;;;22.25;21.00;;;;;-147.17;100.00;59696.56;5034247;28;51170;-49
2021/06/08 02:27:36;;;;;;;;;22.50;20.50;;;;;-147.17;100.00;59696.56;5032947;28;51121;-45
2021/06/08 02:30:02;;;;;;;;;23.00;22.00;;;;;-147.17;100.00;59696.56;5034110;28;51080;-47
2021/06/08 02:32:30;;;;;;;;;27.75;27.00;;;;;-147.17;100.00;59696.56;5035138;28;51035;-47
2021/06/08 02:34:57;;;;;;;;;24.75;24.75;;;;;-147.17;100.00;59696.56;5031533;28;51065;-48
2021/06/08 02:37:24;;;;;;;;;22.25;21.75;;;;;-147.17;100.00;59696.56;5034072;28;51353;-45
2021/06/08 02:39:50;;;;;;;;;24.00;24.00;;;;;-147.17;100.00;59696.56;5034260;28;51002;-46
2021/06/08 02:42:18;;;;;;;;;25.25;25.25;;;;;-147.17;100.00;59696.56;5034757;28;51008;-47
2021/06/08 02:44:44;;;;;;;;;27.00;26.50;;;;;-147.17;100.00;59696.56;5026707;28;51091;-44
2021/06/08 02:47:11;;;;;;;;;28.25;26.75;;;;;-147.17;100.00;59696.56;5049922;28;51045;-47
2021/06/08 02:49:37;;;;;;;;;26.25;24.25;;;;;-147.17;100.00;59696.56;5033627;28;51059;-48
2021/06/08 02:52:03;;;;;;;;;24.25;23.50;;;;;-147.17;100.00;59696.56;5034185;28;51156;-48
2021/06/08 02:54:29;;;;;;;;;28.50;27.50;;;;;-147.17;100.00;59696.56;5050165;28;51056;-47
2021/06/08 02:56:57;;;;;;;;;29.00;27.50;;;;;-147.17;100.00;59696.56;5033878;28;51354;-44
2021/06/08 02:59:26;;;;;;;;;28.75;28.50;;;;;-147.17;100.00;59696.56;5032573;28;51885;-44
2021/06/08 03:01:54;;;;;;;;;27.00;26.50;;;;;-147.17;100.00;59696.56;5032810;28;50978;-44
2021/06/08 03:04:23;;;;;;;;;29.00;28.00;;;;;-147.17;100.00;59696.56;5033117;28;50990;-48
2021/06/08 03:06:53;;;;;;;;;30.00;28.75;;;;;-147.17;100.00;59696.56;5033828;28;51139;-46
2021/06/08 03:09:27;;;;;;;;;33.75;30.50;;;;;-147.17;100.00;59696.56;5033106;28;52564;-46
2021/06/08 03:11:56;;;;;;;;;29.75;29.25;;;;;-147.17;100.00;59696.56;5032162;28;51000;-47
2021/06/08 03:14:23;;;;;;;;;30.25;28.50;;;;;-147.17;100.00;59696.56;5034107;28;51041;-50
2021/06/08 03:16:53;;;;;;;;;30.25;29.25;;;;;-147.17;100.00;59696.56;5032129;28;51445;-48
2021/06/08 03:19:22;;;;;;;;;25.25;23.50;;;;;-147.17;100.00;59696.56;5033416;28;52061;-46
2021/06/08 03:21:54;;;;;;;;;31.50;30.00;;;;;-147.17;100.00;59696.56;5032058;28;50981;-46
2021/06/08 03:24:24;;;;;;;;;30.25;28.50;;;;;-147.17;100.00;59696.56;5013537;28;51070;-46
2021/06/08 03:26:52;;;;;;;;;26.00;26.00;;;;;-147.17;100.00;59696.56;5021954;28;51405;-48
2021/06/08 03:29:19;;;;;;;;;30.00;28.25;;;;;-147.17;100.00;59696.56;5033808;28;51107;-48
2021/06/08 03:31:47;;;;;;;;;28.00;28.00;;;;;-147.17;100.00;59696.56;5031065;28;51183;-49
2021/06/08 03:34:16;;;;;;;;;29.75;28.25;;;;;-147.17;100.00;59696.56;5028762;28;50925;-49
2021/06/08 03:36:45;;;;;;;;;31.25;30.00;;;;;-147.17;100.00;59696.56;5031670;28;51353;-45
2021/06/08 03:39:12;;;;;;;;;28.00;27.50;;;;;-147.17;100.00;59696.56;5032847;28;52048;-43
2021/06/08 03:41:38;;;;;;;;;29.25;28.50;;;;;-147.17;100.00;59696.56;5030324;28;50929;-44
2021/06/08 03:44:05;;;;;;;;;29.50;28.00;;;;;-147.17;100.00;59696.56;5032038;28;51143;-44
2021/06/08 03:46:31;;;;;;;;;31.25;30.25;;;;;-147.17;100.00;59696.56;5031724;28;51010;-43
2021/06/08 03:48:59;;;;;;;;;33.25;30.00;;;;;-147.17;100.00;59696.56;5033530;28;51960;-43
2021/06/08 03:51:31;;;;;;;;;32.25;30.25;;;;;-147.17;100.00;59696.56;5030119;28;51187;-44
2021/06/08 03:53:58;;;;;;;;;29.00;27.00;;;;;-147.17;100.00;59696.56;5034397;28;51113;-44
2021/06/08 03:56:25;;;;;;;;;32.75;31.25;;;;;-147.17;100.00;59696.56;5030592;28;50942;-45
2021/06/08 03:58:54;;;;;;;;;27.50;27.00;;;;;-147.17;100.00;59696.56;5033700;28;51206;-44
2021/06/08 04:01:20;;;;;;;;;32.00;30.00;;;;;-147.17;100.00;59696.56;5029932;28;51081;-46
2021/06/08 04:03:48;;;;;;;;;31.50;30.25;;;;;-147.17;100.00;59696.56;5033808;28;51024;-51
2021/06/08 04:06:15;;;;;;;;;27.25;27.00;;;;;-147.17;100.00;59696.56;5031509;28;50926;-46
2021/06/08 04:08:40;;;;;;;;;27.00;27.00;;;;;-147.17;100.00;59696.56;5028874;28;51071;-46
2021/06/08 04:11:09;;;;;;;;;31.25;28.50;;;;;-147.17;100.00;59696.56;5031604;28;51205;-44
2021/06/08 04:13:35;;;;;;;;;28.50;28.25;;;;;-147.17;100.00;59696.56;5032899;28;51214;-46
2021/06/08 04:16:01;;;;;;;;;30.25;29.00;;;;;-147.17;100.00;59696.56;5032700;28;51276;-43
2021/06/08 04:18:30;;;;;;;;;32.00;28.75;;;;;-147.17;100.00;59696.56;5031329;28;50981;-43
2021/06/08 04:20:56;;;;;;;;;32.50;30.00;;;;;-147.17;100.00;59696.56;5032059;28;51168;-47
2021/06/08 04:23:25;;;;;;;;;29.00;28.75;;;;;-147.17;100.00;59696.56;5030411;28;51884;-44
2021/06/08 04:25:51;;;;;;;;;30.50;27.75;;;;;-147.17;100.00;59696.56;5033549;28;50961;-46
2021/06/08 04:28:21;;;;;;;;;29.50;28.50;;;;;-147.17;100.00;59696.56;5029779;28;52804;-46
2021/06/08 04:30:47;;;;;;;;;31.25;29.50;;;;;-147.17;100.00;59696.56;5032423;28;51130;-46
2021/06/08 04:33:13;;;;;;;;;28.00;26.75;;;;;-147.17;100.00;59696.56;5030464;28;51190;-48
2021/06/08 04:35:39;;;;;;;;;27.75;27.75;;;;;-147.17;100.00;59696.56;5033434;28;51101;-46
2021/06/08 04:38:04;;;;;;;;;28.75;27.00;;;;;-147.17;100.00;59696.56;5030641;28;52751;-47
2021/06/08 04:40:31;;;;;;;;;30.00;29.00;;;;;-147.17;100.00;59696.56;5030998;28;51227;-44
2021/06/08 04:42:57;;;;;;;;;29.75;29.25;;;;;-147.17;100.00;59696.56;5032626;28;53011;-47
2021/06/08 04:45:22;;;;;;;;;27.50;26.50;;;;;-147.17;100.00;59696.56;5033001;28;51286;-47
2021/06/08 04:47:47;;;;;;;;;28.00;28.00;;;;;-147.17;100.00;59696.56;5030437;28;51971;-50
2021/06/08 04:50:14;;;;;;;;;31.00;29.75;;;;;-147.17;100.00;59696.56;5031372;28;51251;-46
2021/06/08 04:52:40;;;;;;;;;33.75;31.75;;;;;-147.17;100.00;59696.56;5032224;28;51198;-46
2021/06/08 04:55:08;;;;;;;;;32.75;30.75;;;;;-147.17;100.00;59696.56;5033065;28;51341;-48
2021/06/08 04:57:34;;;;;;;;;30.00;28.75;;;;;-147.17;100.00;59696.56;5027909;28;51969;-50
2021/06/08 05:00:06;;;;;;;;;29.75;29.00;;;;;-147.17;100.00;59696.56;5030885;28;51258;-46
2021/06/08 05:02:31;;;;;;;;;29.75;29.50;;;;;-147.17;100.00;59696.56;5026699;28;51124;-46
2021/06/08 05:05:00;;;;;;;;;30.75;29.25;;;;;-147.17;100.00;59696.56;5032562;28;51434;-44
2021/06/08 05:07:27;;;;;;;;;30.00;30.00;;;;;-147.17;100.00;59696.56;5030416;28;52041;-46
2021/06/08 05:09:54;;;;;;;;;32.00;29.75;;;;;-147.17;100.00;59696.56;5032649;28;50952;-45
2021/06/08 05:12:22;;;;;;;;;30.25;27.75;;;;;-147.17;100.00;59696.56;5029865;28;51117;-45
2021/06/08 05:14:53;;;;;;;;;27.25;26.00;;;;;-147.17;100.00;59696.56;5032634;28;51311;-46
2021/06/08 05:17:21;;;;;;;;;32.00;29.25;;;;;-147.17;100.00;59696.56;5027188;28;51625;-46
2021/06/08 05:19:48;;;;;;;;;32.25;30.75;;;;;-147.17;100.00;59696.56;5032233;28;51123;-49
2021/06/08 05:22:18;;;;;;;;;29.00;29.00;;;;;-147.17;100.00;59696.56;5029304;28;51170;-47
2021/06/08 05:24:49;;;;;;;;;29.50;28.50;;;;;-147.17;100.00;59696.56;5022296;28;51136;-50
2021/06/08 05:27:14;;;;;;;;;33.25;31.00;;;;;-147.17;100.00;59696.56;5029401;28;51175;-45
2021/06/08 05:29:40;;;;;;;;;34.75;32.25;;;;;-147.17;100.00;59696.56;5025390;28;51049;-45
2021/06/08 05:32:06;;;;;;;;;31.00;29.75;;;;;-147.17;100.00;59696.56;5025980;28;51063;-49
2021/06/08 05:34:31;;;;;;;;;35.25;31.00;;;;;-147.17;100.00;59696.56;5025414;28;50974;-50
2021/06/08 05:36:57;;;;;;;;;29.75;28.75;;;;;-147.17;100.00;59696.56;5028003;28;51801;-45
2021/06/08 05:39:22;;;;;;;;;30.50;29.50;;;;;-147.17;100.00;59696.56;5031332;28;50950;-46
2021/06/08 05:41:47;;;;;;;;;32.50;30.00;;;;;-147.17;100.00;59696.56;5028657;28;51271;-47
2021/06/08 05:44:14;;;;;;;;;33.75;32.25;;;;;-147.17;100.00;59696.56;5031781;28;50981;-47
2021/06/08 05:46:40;;;;;;;;;31.75;30.75;;;;;-147.17;100.00;59696.56;5030365;28;52121;-46
2021/06/08 05:49:07;;;;;;;;;33.25;30.25;;;;;-147.17;100.00;59696.56;5030888;28;50971;-45
2021/06/08 05:51:34;;;;;;;;;35.25;32.00;;;;;-147.17;100.00;59696.56;5031429;28;51193;-47
2021/06/08 05:54:00;;;;;;;;;36.00;31.75;;;;;-147.17;100.00;59696.56;5031519;28;51143;-46
2021/06/08 05:56:31;;;;;;;;;32.25;30.75;;;;;-147.17;100.00;59696.56;5031086;28;51939;-47
2021/06/08 05:58:57;;;;;;;;;35.00;31.50;;;;;-147.17;100.00;59696.56;5031683;28;52236;-47
2021/06/08 06:01:23;;;;;;;;;25.50;25.50;;;;;-147.17;100.00;59696.56;5029430;28;51152;-46
2021/06/08 06:03:51;;;;;;;;;29.50;28.75;;;;;-147.17;100.00;59696.56;5030777;28;51074;-49
2021/06/08 06:06:17;;;;;;;;;30.00;29.00;;;;;-147.17;100.00;59696.56;5031127;28;52038;-46
2021/06/08 06:08:43;;;;;;;;;26.75;25.75;;;;;-147.17;100.00;59696.56;5034289;28;51028;-46
2021/06/08 06:11:09;;;;;;;;;30.00;29.00;;;;;-147.17;100.00;59696.56;5035014;28;50905;-49
2021/06/08 06:13:47;;;;;;;;;27.00;26.75;;;;;-147.17;100.00;59696.56;5035423;28;50942;-46
2021/06/08 06:16:19;;;;;;;;;30.25;28.50;;;;;-147.17;100.00;59696.56;5033840;28;51886;-46
2021/06/08 06:18:44;;;;;;;;;27.25;27.25;;;;;-147.17;100.00;59696.56;5034779;28;51242;-46
2021/06/08 06:21:11;;;;;;;;;26.25;26.25;;;;;-147.17;100.00;59696.56;5035069;28;51196;-46
2021/06/08 06:23:36;;;;;;;;;28.33;27.33;;;;;-147.17;100.00;59696.56;5032760;28;51083;-46
2021/06/08 06:26:02;;;;;;;;;26.25;26.25;;;;;-147.17;100.00;59696.56;5033900;28;51879;-46
2021/06/08 06:28:28;;;;;;;;;31.00;28.75;;;;;-147.17;100.00;59696.56;5033790;28;50961;-47
2021/06/08 06:30:54;;;;;;;;;28.25;28.25;;;;;-147.17;100.00;59696.56;5033475;28;51187;-45
2021/06/08 06:33:22;;;;;;;;;31.75;29.00;;;;;-147.17;100.00;59696.56;5030254;28;51194;-46
2021/06/08 06:35:47;;;;;;;;;26.00;24.50;;;;;-147.17;100.00;59696.56;5033302;28;50993;-48
2021/06/08 06:38:13;;;;;;;;;24.75;24.00;;;;;-147.17;100.00;59696.56;5034116;28;51003;-45
2021/06/08 06:40:40;;;;;;;;;28.00;27.00;;;;;-147.17;100.00;59696.56;5033692;28;51275;-46
2021/06/08 06:43:08;;;;;;;;;27.00;26.25;;;;;-147.17;100.00;59696.56;5034571;28;51081;-46
2021/06/08 06:45:36;;;;;;;;;28.50;26.25;;;;;-147.17;100.00;59696.56;5033632;28;51220;-45
2021/06/08 06:48:03;;;;;;;;;25.25;24.75;;;;;-147.17;100.00;59696.56;5034126;28;51076;-46
2021/06/08 06:50:36;;;;;;;;;28.50;27.75;;;;;-147.17;100.00;59696.56;5033006;28;51030;-46
2021/06/08 06:53:01;;;;;;;;;27.50;27.00;;;;;-147.17;100.00;59696.56;5034517;28;51307;-46
2021/06/08 06:55:28;;;;;;;;;28.75;28.25;;;;;-147.17;100.00;59696.56;5033912;28;50885;-47
2021/06/08 06:57:55;;;;;;;;;28.00;27.25;;;;;-147.17;100.00;59696.56;5034487;28;50948;-48
2021/06/08 07:00:22;;;;;;;;;29.75;28.00;;;;;-147.17;100.00;59696.56;5031222;28;51255;-45
2021/06/08 07:02:49;;;;;;;;;29.50;28.00;;;;;-147.17;100.00;59696.56;5024413;28;51382;-45
2021/06/08 07:05:18;;;;;;;;;31.75;29.25;;;;;-147.17;100.00;59696.56;5032393;28;51517;-47
2021/06/08 07:07:46;;;;;;;;;31.75;29.75;;;;;-147.17;100.00;59696.56;5033992;28;50823;-49
2021/06/08 07:10:15;;;;;;;;;31.25;30.00;;;;;-147.17;100.00;59696.56;5033884;28;51039;-48
2021/06/08 07:12:42;;;;;;;;;33.00;31.00;;;;;-147.17;100.00;59696.56;5033855;28;50906;-48
2021/06/08 07:15:09;;;;;;;;;30.75;29.25;;;;;-147.17;100.00;59696.56;5033245;28;52037;-47
2021/06/08 07:17:36;;;;;;;;;31.25;29.50;;;;;-147.17;100.00;59696.56;5032524;28;50888;-47
2021/06/08 07:20:06;;;;;;;;;29.25;28.50;;;;;-147.17;100.00;59696.56;5032909;28;51189;-46
2021/06/08 07:22:34;;;;;;;;;31.25;29.25;;;;;-147.17;100.00;59696.56;5032896;28;51404;-46
2021/06/08 07:25:02;;;;;;;;;25.50;25.00;;;;;-147.17;100.00;59696.56;5031061;28;51143;-48
2021/06/08 07:27:28;;;;;;;;;26.75;25.50;;;;;-147.17;100.00;59696.56;5033288;28;51086;-50
2021/06/08 07:29:54;;;;;;;;;26.50;26.50;;;;;-147.17;100.00;59696.56;5032816;28;51151;-47
2021/06/08 07:32:35;;;;;;;;;30.00;28.75;;;;;-147.17;100.00;59696.56;5032692;28;51359;-46
2021/06/08 07:35:13;;;;;;;;;26.00;26.00;;;;;-147.17;100.00;59696.56;5032976;28;52026;-51
2021/06/08 07:37:44;;;;;;;;;25.25;25.25;;;;;-147.17;100.00;59696.56;4995884;28;51131;-45
2021/06/08 07:40:16;;;;;;;;;27.50;26.50;;;;;-147.17;100.00;59696.56;5028450;28;51291;-48
2021/06/08 07:43:01;;;;;;;;;25.00;25.00;;;;;-147.17;100.00;59696.56;5021706;28;51117;-51
2021/06/08 07:45:35;;;;;;;;;29.75;28.75;;;;;-147.17;100.00;59696.56;5033083;28;50967;-48
2021/06/08 07:48:03;;;;;;;;;25.25;25.00;;;;;-147.17;100.00;59696.56;5032736;28;51004;-48
2021/06/08 07:50:33;;;;;;;;;24.00;24.00;;;;;-147.17;100.00;59696.56;5033228;28;50867;-50
2021/06/08 07:53:01;;;;;;;;;25.25;24.00;;;;;-147.17;100.00;59696.56;5033147;28;51306;-47
2021/06/08 07:55:28;;;;;;;;;28.50;28.25;;;;;-147.17;100.00;59696.56;5033047;28;51712;-50
2021/06/08 07:57:53;;;;;;;;;27.25;27.25;;;;;-147.17;100.00;59696.56;5033418;28;50909;-48
2021/06/08 08:00:19;;;;;;;;;25.50;24.50;;;;;-147.17;100.00;59696.56;5031707;28;51432;-49
2021/06/08 08:02:46;;;;;;;;;27.00;26.75;;;;;-147.17;100.00;59696.56;5031847;28;50980;-47
2021/06/08 08:05:15;;;;;;;;;30.75;29.00;;;;;-147.17;100.00;59696.56;5032602;28;50960;-47
2021/06/08 08:07:42;;;;;;;;;30.25;28.75;;;;;-147.17;100.00;59696.56;5033181;28;50906;-45
2021/06/08 08:10:08;;;;;;;;;26.25;25.75;;;;;-147.17;100.00;59696.56;5031253;28;51318;-51
2021/06/08 08:12:38;;;;;;;;;25.50;24.00;;;;;-147.17;100.00;59696.56;5033435;28;50913;-48
2021/06/08 08:15:07;;;;;;;;;28.25;26.75;;;;;-147.17;100.00;59696.56;5032659;28;51857;-48
2021/06/08 08:17:32;;;;;;;;;26.75;24.75;;;;;-147.17;100.00;59696.56;5033101;28;50933;-46
2021/06/08 08:20:00;;;;;;;;;27.75;26.75;;;;;-147.17;100.00;59696.56;5033114;28;51257;-47
2021/06/08 08:22:25;;;;;;;;;28.50;27.50;;;;;-147.17;100.00;59696.56;5033143;28;51163;-47
2021/06/08 08:24:51;;;;;;;;;26.25;25.50;;;;;-147.17;100.00;59696.56;5032518;28;51056;-45
2021/06/08 08:27:17;;;;;;;;;24.75;24.00;;;;;-147.17;100.00;59696.56;5032711;28;51073;-48
2021/06/08 08:29:45;;;;;;;;;24.50;24.50;;;;;-147.17;100.00;59696.56;5032349;28;51048;-47
2021/06/08 08:32:12;;;;;;;;;26.50;26.25;;;;;-147.17;100.00;59696.56;5031453;28;51225;-48
2021/06/08 08:34:39;;;;;;;;;25.25;24.75;;;;;-147.17;100.00;59696.56;5031715;28;50917;-46
2021/06/08 08:37:04;;;;;;;;;24.50;24.50;;;;;-147.17;100.00;59696.56;5032549;28;51133;-49
2021/06/08 08:39:29;;;;;;;;;32.00;29.00;;;;;-147.17;100.00;59696.56;5031046;28;51455;-49
2021/06/08 08:41:55;;;;;;;;;26.00;26.00;;;;;-147.17;100.00;59696.56;5032672;28;51093;-49
2021/06/08 08:44:21;;;;;;;;;20.50;20.50;;;;;-147.17;100.00;59696.56;5032049;28;51142;-48
2021/06/08 08:46:46;;;;;;;;;27.50;27.25;;;;;-147.17;100.00;59696.56;5032285;28;51079;-49
2021/06/08 08:49:12;;;;;;;;;25.00;25.00;;;;;-147.17;100.00;59696.56;5031947;28;51202;-49
2021/06/08 08:51:38;;;;;;;;;26.00;25.25;;;;;-147.17;100.00;59696.56;5032092;28;50958;-49
2021/06/08 08:54:05;;;;;;;;;21.50;21.50;;;;;-147.17;100.00;59696.56;5031948;28;53144;-48
2021/06/08 08:56:33;;;;;;;;;23.50;23.50;;;;;-147.17;100.00;59696.56;5030991;28;51087;-48
2021/06/08 08:59:07;;;;;;;;;26.50;25.75;;;;;-147.17;100.00;59696.56;5030837;28;51117;-50
2021/06/08 09:01:35;;;;;;;;;22.25;22.25;;;;;-147.17;100.00;59696.56;5030686;28;51131;-52
2021/06/08 09:04:02;;;;;;;;;24.75;23.75;;;;;-147.17;100.00;59696.56;5030997;28;51803;-47
2021/06/08 09:06:28;;;;;;;;;20.25;20.25;;;;;-147.17;100.00;59696.56;5030503;28;51048;-52
2021/06/08 09:08:53;;;;;;;;;22.50;21.50;;;;;-147.17;100.00;59696.56;5031871;28;51080;-49
2021/06/08 09:11:19;;;;;;;;;26.25;25.50;;;;;-147.17;100.00;59696.56;5032233;28;51298;-48
2021/06/08 09:13:45;;;;;;;;;25.50;25.50;;;;;-147.17;100.00;59696.56;5031162;28;51891;-52
2021/06/08 09:16:11;;;;;;;;;24.75;24.75;;;;;-147.17;100.00;59696.56;5031338;28;51545;-49
2021/06/08 09:18:38;;;;;;;;;24.75;22.75;;;;;-147.17;100.00;59696.56;5030023;28;51154;-52
2021/06/08 09:21:12;;;;;;;;;25.50;25.50;;;;;-147.17;100.00;59696.56;5031548;28;50933;-48
2021/06/08 09:23:38;;;;;;;;;23.75;23.00;;;;;-147.17;100.00;59696.56;5031418;28;52778;-47
2021/06/08 09:26:03;;;;;;;;;24.25;24.25;;;;;-147.17;100.00;59696.56;5031388;28;50938;-50
2021/06/08 09:28:33;;;;;;;;;24.75;24.25;;;;;-147.17;100.00;59696.56;5031351;28;50922;-49
2021/06/08 09:31:03;;;;;;;;;23.50;23.50;;;;;-147.17;100.00;59696.56;5031094;28;51395;-50
2021/06/08 09:33:47;;;;;;;;;21.25;21.25;;;;;-147.17;100.00;59696.56;5030572;28;51809;-49
2021/06/08 09:36:23;;;;;;;;;20.75;20.50;;;;;-147.17;100.00;59696.56;5030841;28;51080;-47
2021/06/08 09:39:05;;;;;;;;;22.00;22.00;;;;;-147.17;100.00;59696.56;5031277;28;51212;-47
2021/06/08 09:41:52;;;;;;;;;26.00;24.75;;;;;-147.17;100.00;59696.56;5032509;28;51239;-48
2021/06/08 09:44:20;;;;;;;;;22.75;22.75;;;;;-147.17;100.00;59696.56;5034678;28;52004;-49
2021/06/08 09:46:53;;;;;;;;;23.75;23.75;;;;;-147.17;100.00;59696.56;5034576;28;51001;-47
2021/06/08 09:49:39;;;;;;;;;19.75;19.00;;;;;-147.17;100.00;59696.56;5034059;28;51005;-50
2021/06/08 09:52:07;;;;;;;;;18.50;18.50;;;;;-147.17;100.00;59696.56;5034750;28;50857;-48
2021/06/08 09:54:40;;;;;;;;;26.25;26.00;;;;;-147.17;100.00;59696.56;5033215;28;52368;-47
2021/06/08 09:57:28;;;;;;;;;34.75;31.50;;;;;-147.17;100.00;59696.56;5034631;28;51122;-47
2021/06/08 10:00:00;;;;;;;;;17.75;17.75;;;;;-147.17;100.00;59696.56;5032326;28;50960;-48
2021/06/08 10:02:32;;;;;;;;;22.00;22.00;;;;;-147.17;100.00;59696.56;5032647;28;51251;-48
2021/06/08 10:05:37;;;;;;;;;22.50;21.75;;;;;-147.17;100.00;59696.56;5033873;28;52196;-49
2021/06/08 10:08:03;;;;;;;;;20.00;20.00;;;;;-147.17;100.00;59696.56;4975471;28;51160;-50
2021/06/08 10:10:48;;;;;;;;;19.00;19.00;;;;;-147.17;100.00;59696.56;4992297;28;50969;-48
2021/06/08 10:13:17;;;;;;;;;18.00;17.25;;;;;-147.17;100.00;59696.56;5017645;28;51100;-50
2021/06/08 10:16:01;;;;;;;;;16.50;16.50;;;;;-147.17;100.00;59696.56;5033557;28;52836;-49
2021/06/08 10:18:59;;;;;;;;;19.75;18.75;;;;;-147.17;100.00;59696.56;5032944;28;51044;-47
2021/06/08 10:21:39;;;;;;;;;20.50;20.50;;;;;-147.17;100.00;59696.56;5034426;28;51108;-48
2021/06/08 10:24:11;;;;;;;;;21.25;20.75;;;;;-147.17;100.00;59696.56;5033621;28;51372;-49
2021/06/08 10:26:41;;;;;;;;;20.25;19.50;;;;;-147.17;100.00;59696.56;5032138;28;51335;-50
2021/06/08 10:29:10;;;;;;;;;16.75;16.75;;;;;-147.17;100.00;59696.56;5033514;28;51027;-50
2021/06/08 10:31:39;;;;;;;;;20.00;20.00;;;;;-147.17;100.00;59696.56;5033927;28;51141;-51
2021/06/08 10:34:07;;;;;;;;;16.25;16.25;;;;;-147.17;100.00;59696.56;5033385;28;51009;-48
2021/06/08 10:36:37;;;;;;;;;19.50;19.25;;;;;-147.17;100.00;59696.56;5033449;28;51840;-51
2021/06/08 10:39:08;;;;;;;;;15.75;15.75;;;;;-147.17;100.00;59696.56;5033239;28;50942;-51
2021/06/08 10:41:35;;;;;;;;;15.75;15.50;;;;;-147.17;100.00;59696.56;5032444;28;51141;-49
2021/06/08 10:44:03;;;;;;;;;20.00;20.00;;;;;-147.17;100.00;59696.56;5033703;28;51229;-48
2021/06/08 10:46:44;;;;;;;;;20.00;18.50;;;;;-147.17;100.00;59696.56;5033141;28;52791;-49
2021/06/08 10:49:10;;;;;;;;;21.00;21.00;;;;;-147.17;100.00;59696.56;5032421;28;51100;-51
2021/06/08 10:51:37;;;;;;;;;18.00;17.75;;;;;-147.17;100.00;59696.56;5033025;28;50947;-47
2021/06/08 10:54:18;;;;;;;;;17.75;16.75;;;;;-147.17;100.00;59696.56;5032128;28;50933;-50
2021/06/08 10:56:58;;;;;;;;;19.75;19.50;;;;;-147.17;100.00;59696.56;5033358;28;52970;-48
2021/06/08 10:59:37;;;;;;;;;18.00;18.00;;;;;-147.17;100.00;59696.56;5033635;28;51167;-47
2021/06/08 11:02:03;;;;;;;;;21.00;20.50;;;;;-147.17;100.00;59696.56;5033510;28;51023;-48